sensor_id;sensor_type;location;lat;lon;timestamp;P1;durP1;ratioP1;P2;durP2;ratioP2
14799;SDS011;7491;57.750;11.970;2022-08-05T00:00:39;12.30;;;6.55;;
14799;SDS011;7491;57.750;11.970;2022-08-05T00:03:05;9.75;;;5.13;;
14799;SDS011;7491;57.750;11.970;2022-08-05T00:05:32;6.45;;;4.70;;
14799;SDS011;7491;57.750;11.970;2022-08-05T00:08:00;9.95;;;5.43;;
14799;SDS011;7491;57.750;11.970;2022-08-05T00:10:27;10.90;;;5.38;;
14799;SDS011;7491;57.750;11.970;2022-08-05T00:12:53;8.52;;;5.35;;
14799;SDS011;7491;57.750;11.970;2022-08-05T00:15:20;8.85;;;5.15;;
14799;SDS011;7491;57.750;11.970;2022-08-05T00:17:47;10.32;;;4.95;;
14799;SDS011;7491;57.750;11.970;2022-08-05T00:20:13;10.02;;;5.22;;
14799;SDS011;7491;57.750;11.970;2022-08-05T00:22:40;9.23;;;5.45;;
14799;SDS011;7491;57.750;11.970;2022-08-05T00:25:08;11.52;;;4.65;;
14799;SDS011;7491;57.750;11.970;2022-08-05T00:27:34;8.75;;;5.03;;
14799;SDS011;7491;57.750;11.970;2022-08-05T00:30:01;8.25;;;4.93;;
14799;SDS011;7491;57.750;11.970;2022-08-05T00:32:29;9.15;;;4.93;;
14799;SDS011;7491;57.750;11.970;2022-08-05T00:34:55;7.63;;;4.63;;
14799;SDS011;7491;57.750;11.970;2022-08-05T00:37:22;9.10;;;5.05;;
14799;SDS011;7491;57.750;11.970;2022-08-05T00:39:50;7.22;;;4.60;;
14799;SDS011;7491;57.750;11.970;2022-08-05T00:42:29;8.40;;;4.38;;
14799;SDS011;7491;57.750;11.970;2022-08-05T00:44:56;7.82;;;4.43;;
14799;SDS011;7491;57.750;11.970;2022-08-05T00:47:23;12.68;;;4.90;;
14799;SDS011;7491;57.750;11.970;2022-08-05T00:49:49;12.18;;;4.90;;
14799;SDS011;7491;57.750;11.970;2022-08-05T00:52:16;13.23;;;4.80;;
14799;SDS011;7491;57.750;11.970;2022-08-05T00:54:43;6.20;;;4.13;;
14799;SDS011;7491;57.750;11.970;2022-08-05T00:57:09;10.68;;;4.22;;
14799;SDS011;7491;57.750;11.970;2022-08-05T00:59:38;11.77;;;4.70;;
14799;SDS011;7491;57.750;11.970;2022-08-05T01:02:04;9.50;;;4.85;;
14799;SDS011;7491;57.750;11.970;2022-08-05T01:04:31;9.07;;;4.25;;
14799;SDS011;7491;57.750;11.970;2022-08-05T01:06:58;12.18;;;4.45;;
14799;SDS011;7491;57.750;11.970;2022-08-05T01:09:24;9.60;;;3.70;;
14799;SDS011;7491;57.750;11.970;2022-08-05T01:11:52;14.38;;;4.22;;
14799;SDS011;7491;57.750;11.970;2022-08-05T01:14:23;9.30;;;4.10;;
14799;SDS011;7491;57.750;11.970;2022-08-05T01:16:58;8.05;;;4.00;;
14799;SDS011;7491;57.750;11.970;2022-08-05T01:19:32;9.55;;;3.95;;
14799;SDS011;7491;57.750;11.970;2022-08-05T01:22:17;6.97;;;3.88;;
14799;SDS011;7491;57.750;11.970;2022-08-05T01:28:08;6.80;;;3.70;;
14799;SDS011;7491;57.750;11.970;2022-08-05T01:30:43;12.52;;;4.43;;
14799;SDS011;7491;57.750;11.970;2022-08-05T01:33:13;10.27;;;4.03;;
14799;SDS011;7491;57.750;11.970;2022-08-05T01:35:41;9.02;;;3.45;;
14799;SDS011;7491;57.750;11.970;2022-08-05T01:38:12;9.80;;;3.25;;
14799;SDS011;7491;57.750;11.970;2022-08-05T01:40:40;13.95;;;3.78;;
14799;SDS011;7491;57.750;11.970;2022-08-05T01:43:09;8.35;;;3.20;;
14799;SDS011;7491;57.750;11.970;2022-08-05T01:45:37;9.82;;;3.75;;
14799;SDS011;7491;57.750;11.970;2022-08-05T01:48:05;6.57;;;3.50;;
14799;SDS011;7491;57.750;11.970;2022-08-05T01:50:35;10.18;;;3.22;;
14799;SDS011;7491;57.750;11.970;2022-08-05T01:53:05;11.65;;;3.42;;
14799;SDS011;7491;57.750;11.970;2022-08-05T01:55:34;6.32;;;3.22;;
14799;SDS011;7491;57.750;11.970;2022-08-05T01:58:03;9.50;;;3.20;;
14799;SDS011;7491;57.750;11.970;2022-08-05T02:00:34;6.72;;;3.50;;
14799;SDS011;7491;57.750;11.970;2022-08-05T02:03:05;10.15;;;3.30;;
14799;SDS011;7491;57.750;11.970;2022-08-05T02:05:37;10.27;;;3.72;;
14799;SDS011;7491;57.750;11.970;2022-08-05T02:08:05;4.57;;;2.88;;
14799;SDS011;7491;57.750;11.970;2022-08-05T02:10:34;11.88;;;3.08;;
14799;SDS011;7491;57.750;11.970;2022-08-05T02:13:07;7.20;;;3.38;;
14799;SDS011;7491;57.750;11.970;2022-08-05T02:15:40;7.15;;;2.97;;
14799;SDS011;7491;57.750;11.970;2022-08-05T02:18:11;8.30;;;3.50;;
14799;SDS011;7491;57.750;11.970;2022-08-05T02:20:43;6.32;;;3.05;;
14799;SDS011;7491;57.750;11.970;2022-08-05T02:23:14;7.15;;;2.80;;
14799;SDS011;7491;57.750;11.970;2022-08-05T02:25:46;7.68;;;3.03;;
14799;SDS011;7491;57.750;11.970;2022-08-05T02:28:18;13.52;;;3.40;;
14799;SDS011;7491;57.750;11.970;2022-08-05T02:30:52;7.18;;;3.08;;
14799;SDS011;7491;57.750;11.970;2022-08-05T02:33:22;7.45;;;2.95;;
14799;SDS011;7491;57.750;11.970;2022-08-05T02:35:51;11.38;;;3.40;;
14799;SDS011;7491;57.750;11.970;2022-08-05T02:38:20;8.95;;;3.47;;
14799;SDS011;7491;57.750;11.970;2022-08-05T02:40:49;8.55;;;3.08;;
14799;SDS011;7491;57.750;11.970;2022-08-05T02:43:18;8.85;;;3.03;;
14799;SDS011;7491;57.750;11.970;2022-08-05T02:45:46;7.68;;;3.50;;
14799;SDS011;7491;57.750;11.970;2022-08-05T02:48:15;6.32;;;2.83;;
14799;SDS011;7491;57.750;11.970;2022-08-05T02:50:43;7.88;;;3.20;;
14799;SDS011;7491;57.750;11.970;2022-08-05T02:53:14;7.85;;;3.30;;
14799;SDS011;7491;57.750;11.970;2022-08-05T02:55:42;9.50;;;4.07;;
14799;SDS011;7491;57.750;11.970;2022-08-05T02:58:11;5.30;;;3.35;;
14799;SDS011;7491;57.750;11.970;2022-08-05T03:00:40;11.95;;;3.58;;
14799;SDS011;7491;57.750;11.970;2022-08-05T03:03:09;13.80;;;5.30;;
14799;SDS011;7491;57.750;11.970;2022-08-05T03:05:39;7.70;;;3.90;;
14799;SDS011;7491;57.750;11.970;2022-08-05T03:08:07;9.60;;;3.97;;
14799;SDS011;7491;57.750;11.970;2022-08-05T03:10:35;11.20;;;4.15;;
14799;SDS011;7491;57.750;11.970;2022-08-05T03:13:02;9.52;;;3.63;;
14799;SDS011;7491;57.750;11.970;2022-08-05T03:15:36;10.02;;;3.90;;
14799;SDS011;7491;57.750;11.970;2022-08-05T03:18:03;12.73;;;3.53;;
14799;SDS011;7491;57.750;11.970;2022-08-05T03:20:30;12.43;;;4.35;;
14799;SDS011;7491;57.750;11.970;2022-08-05T03:22:58;7.50;;;3.30;;
14799;SDS011;7491;57.750;11.970;2022-08-05T03:25:25;8.88;;;3.80;;
14799;SDS011;7491;57.750;11.970;2022-08-05T03:27:53;7.10;;;3.50;;
14799;SDS011;7491;57.750;11.970;2022-08-05T03:30:21;8.38;;;4.13;;
14799;SDS011;7491;57.750;11.970;2022-08-05T03:32:48;7.80;;;3.72;;
14799;SDS011;7491;57.750;11.970;2022-08-05T03:35:15;8.27;;;3.78;;
14799;SDS011;7491;57.750;11.970;2022-08-05T03:37:42;8.82;;;4.15;;
14799;SDS011;7491;57.750;11.970;2022-08-05T03:40:11;12.60;;;3.75;;
14799;SDS011;7491;57.750;11.970;2022-08-05T03:42:38;7.05;;;3.15;;
14799;SDS011;7491;57.750;11.970;2022-08-05T03:45:05;7.70;;;3.55;;
14799;SDS011;7491;57.750;11.970;2022-08-05T03:47:33;8.60;;;3.78;;
14799;SDS011;7491;57.750;11.970;2022-08-05T03:49:59;7.45;;;3.22;;
14799;SDS011;7491;57.750;11.970;2022-08-05T03:52:27;7.43;;;3.38;;
14799;SDS011;7491;57.750;11.970;2022-08-05T03:54:59;9.20;;;3.55;;
14799;SDS011;7491;57.750;11.970;2022-08-05T03:57:30;8.68;;;3.50;;
14799;SDS011;7491;57.750;11.970;2022-08-05T03:59:59;9.10;;;3.30;;
14799;SDS011;7491;57.750;11.970;2022-08-05T04:02:30;5.97;;;3.28;;
14799;SDS011;7491;57.750;11.970;2022-08-05T04:04:59;8.55;;;3.45;;
14799;SDS011;7491;57.750;11.970;2022-08-05T04:07:27;9.73;;;3.63;;
14799;SDS011;7491;57.750;11.970;2022-08-05T04:09:54;8.25;;;3.40;;
14799;SDS011;7491;57.750;11.970;2022-08-05T04:12:22;7.15;;;3.20;;
14799;SDS011;7491;57.750;11.970;2022-08-05T04:14:50;7.05;;;2.60;;
14799;SDS011;7491;57.750;11.970;2022-08-05T04:17:17;5.97;;;2.45;;
14799;SDS011;7491;57.750;11.970;2022-08-05T04:19:45;5.57;;;2.78;;
14799;SDS011;7491;57.750;11.970;2022-08-05T04:22:12;8.38;;;3.00;;
14799;SDS011;7491;57.750;11.970;2022-08-05T04:24:39;9.60;;;2.83;;
14799;SDS011;7491;57.750;11.970;2022-08-05T04:27:08;8.32;;;2.63;;
14799;SDS011;7491;57.750;11.970;2022-08-05T04:29:35;5.97;;;2.83;;
14799;SDS011;7491;57.750;11.970;2022-08-05T04:32:03;6.10;;;2.70;;
14799;SDS011;7491;57.750;11.970;2022-08-05T04:34:30;5.80;;;2.35;;
14799;SDS011;7491;57.750;11.970;2022-08-05T04:36:57;7.70;;;2.67;;
14799;SDS011;7491;57.750;11.970;2022-08-05T04:39:23;7.88;;;2.45;;
14799;SDS011;7491;57.750;11.970;2022-08-05T04:41:50;7.75;;;2.67;;
14799;SDS011;7491;57.750;11.970;2022-08-05T04:44:17;11.60;;;2.40;;
14799;SDS011;7491;57.750;11.970;2022-08-05T04:46:43;11.43;;;2.60;;
14799;SDS011;7491;57.750;11.970;2022-08-05T04:49:11;12.70;;;2.47;;
14799;SDS011;7491;57.750;11.970;2022-08-05T04:51:38;9.88;;;2.33;;
14799;SDS011;7491;57.750;11.970;2022-08-05T04:54:04;12.85;;;2.65;;
14799;SDS011;7491;57.750;11.970;2022-08-05T04:56:31;10.75;;;2.95;;
14799;SDS011;7491;57.750;11.970;2022-08-05T04:58:57;11.50;;;2.58;;
14799;SDS011;7491;57.750;11.970;2022-08-05T05:01:24;8.38;;;2.35;;
14799;SDS011;7491;57.750;11.970;2022-08-05T05:03:51;13.70;;;2.22;;
14799;SDS011;7491;57.750;11.970;2022-08-05T05:06:19;14.57;;;2.67;;
14799;SDS011;7491;57.750;11.970;2022-08-05T05:08:45;11.82;;;2.63;;
14799;SDS011;7491;57.750;11.970;2022-08-05T05:11:12;12.45;;;3.05;;
14799;SDS011;7491;57.750;11.970;2022-08-05T05:13:39;7.03;;;1.80;;
14799;SDS011;7491;57.750;11.970;2022-08-05T05:16:05;10.43;;;2.72;;
14799;SDS011;7491;57.750;11.970;2022-08-05T05:18:32;11.13;;;2.17;;
14799;SDS011;7491;57.750;11.970;2022-08-05T05:20:59;11.32;;;2.40;;
14799;SDS011;7491;57.750;11.970;2022-08-05T05:23:28;12.57;;;2.60;;
14799;SDS011;7491;57.750;11.970;2022-08-05T05:25:54;14.68;;;2.47;;
14799;SDS011;7491;57.750;11.970;2022-08-05T05:28:21;11.43;;;2.25;;
14799;SDS011;7491;57.750;11.970;2022-08-05T05:30:48;11.70;;;2.45;;
14799;SDS011;7491;57.750;11.970;2022-08-05T05:33:15;9.65;;;2.30;;
14799;SDS011;7491;57.750;11.970;2022-08-05T05:35:42;11.38;;;2.63;;
14799;SDS011;7491;57.750;11.970;2022-08-05T05:38:09;17.70;;;2.22;;
14799;SDS011;7491;57.750;11.970;2022-08-05T05:40:37;10.48;;;2.13;;
14799;SDS011;7491;57.750;11.970;2022-08-05T05:43:04;5.25;;;1.70;;
14799;SDS011;7491;57.750;11.970;2022-08-05T05:45:30;8.52;;;2.20;;
14799;SDS011;7491;57.750;11.970;2022-08-05T05:47:57;9.75;;;2.60;;
14799;SDS011;7491;57.750;11.970;2022-08-05T05:50:24;11.73;;;2.20;;
14799;SDS011;7491;57.750;11.970;2022-08-05T05:52:51;8.30;;;2.20;;
14799;SDS011;7491;57.750;11.970;2022-08-05T05:55:18;15.30;;;2.85;;
14799;SDS011;7491;57.750;11.970;2022-08-05T05:57:46;9.20;;;2.10;;
14799;SDS011;7491;57.750;11.970;2022-08-05T06:00:14;9.45;;;2.28;;
14799;SDS011;7491;57.750;11.970;2022-08-05T06:02:42;9.35;;;2.25;;
14799;SDS011;7491;57.750;11.970;2022-08-05T06:05:10;14.68;;;2.60;;
14799;SDS011;7491;57.750;11.970;2022-08-05T06:07:38;12.73;;;2.95;;
14799;SDS011;7491;57.750;11.970;2022-08-05T06:10:05;8.02;;;2.10;;
14799;SDS011;7491;57.750;11.970;2022-08-05T06:12:33;9.82;;;1.60;;
14799;SDS011;7491;57.750;11.970;2022-08-05T06:15:02;12.70;;;2.22;;
14799;SDS011;7491;57.750;11.970;2022-08-05T06:17:30;12.15;;;2.83;;
14799;SDS011;7491;57.750;11.970;2022-08-05T06:19:57;9.23;;;2.33;;
14799;SDS011;7491;57.750;11.970;2022-08-05T06:22:24;9.85;;;2.15;;
14799;SDS011;7491;57.750;11.970;2022-08-05T06:24:52;8.45;;;1.85;;
14799;SDS011;7491;57.750;11.970;2022-08-05T06:27:19;8.63;;;2.05;;
14799;SDS011;7491;57.750;11.970;2022-08-05T06:29:45;11.30;;;2.60;;
14799;SDS011;7491;57.750;11.970;2022-08-05T06:32:13;6.95;;;1.83;;
14799;SDS011;7491;57.750;11.970;2022-08-05T06:34:40;10.85;;;2.10;;
14799;SDS011;7491;57.750;11.970;2022-08-05T06:37:07;8.15;;;2.40;;
14799;SDS011;7491;57.750;11.970;2022-08-05T06:39:41;11.20;;;1.77;;
14799;SDS011;7491;57.750;11.970;2022-08-05T06:42:07;11.40;;;1.92;;
14799;SDS011;7491;57.750;11.970;2022-08-05T06:44:34;10.18;;;2.20;;
14799;SDS011;7491;57.750;11.970;2022-08-05T06:47:01;8.93;;;2.00;;
14799;SDS011;7491;57.750;11.970;2022-08-05T06:49:29;7.35;;;1.73;;
14799;SDS011;7491;57.750;11.970;2022-08-05T06:51:55;6.05;;;2.05;;
14799;SDS011;7491;57.750;11.970;2022-08-05T06:54:22;8.40;;;2.00;;
14799;SDS011;7491;57.750;11.970;2022-08-05T06:56:49;9.18;;;1.95;;
14799;SDS011;7491;57.750;11.970;2022-08-05T06:59:16;13.10;;;1.85;;
14799;SDS011;7491;57.750;11.970;2022-08-05T07:01:42;8.02;;;1.48;;
14799;SDS011;7491;57.750;11.970;2022-08-05T07:04:09;5.35;;;1.95;;
14799;SDS011;7491;57.750;11.970;2022-08-05T07:06:37;6.15;;;1.70;;
14799;SDS011;7491;57.750;11.970;2022-08-05T07:09:04;8.52;;;1.80;;
14799;SDS011;7491;57.750;11.970;2022-08-05T07:11:31;9.82;;;1.88;;
14799;SDS011;7491;57.750;11.970;2022-08-05T07:13:58;4.95;;;1.40;;
14799;SDS011;7491;57.750;11.970;2022-08-05T07:16:42;8.20;;;1.48;;
14799;SDS011;7491;57.750;11.970;2022-08-05T07:19:14;9.18;;;1.40;;
14799;SDS011;7491;57.750;11.970;2022-08-05T07:21:43;12.13;;;1.65;;
14799;SDS011;7491;57.750;11.970;2022-08-05T07:24:10;8.63;;;2.58;;
14799;SDS011;7491;57.750;11.970;2022-08-05T07:26:37;11.02;;;1.67;;
14799;SDS011;7491;57.750;11.970;2022-08-05T07:29:04;8.75;;;1.63;;
14799;SDS011;7491;57.750;11.970;2022-08-05T07:31:30;9.00;;;1.60;;
14799;SDS011;7491;57.750;11.970;2022-08-05T07:33:57;7.80;;;1.50;;
14799;SDS011;7491;57.750;11.970;2022-08-05T07:36:24;9.13;;;1.90;;
14799;SDS011;7491;57.750;11.970;2022-08-05T07:38:52;6.03;;;1.35;;
14799;SDS011;7491;57.750;11.970;2022-08-05T07:41:20;9.10;;;1.40;;
14799;SDS011;7491;57.750;11.970;2022-08-05T07:43:47;6.57;;;1.23;;
14799;SDS011;7491;57.750;11.970;2022-08-05T07:46:14;4.15;;;1.25;;
14799;SDS011;7491;57.750;11.970;2022-08-05T07:48:41;4.78;;;1.50;;
14799;SDS011;7491;57.750;11.970;2022-08-05T07:51:07;6.07;;;1.33;;
14799;SDS011;7491;57.750;11.970;2022-08-05T07:53:34;4.70;;;1.00;;
14799;SDS011;7491;57.750;11.970;2022-08-05T07:56:03;7.38;;;1.15;;
14799;SDS011;7491;57.750;11.970;2022-08-05T07:58:30;4.55;;;1.33;;
14799;SDS011;7491;57.750;11.970;2022-08-05T08:00:56;6.28;;;1.40;;
14799;SDS011;7491;57.750;11.970;2022-08-05T08:03:23;5.13;;;1.05;;
14799;SDS011;7491;57.750;11.970;2022-08-05T08:05:49;5.32;;;1.58;;
14799;SDS011;7491;57.750;11.970;2022-08-05T08:08:16;4.75;;;0.90;;
14799;SDS011;7491;57.750;11.970;2022-08-05T08:10:43;5.78;;;1.08;;
14799;SDS011;7491;57.750;11.970;2022-08-05T08:13:11;4.45;;;1.05;;
14799;SDS011;7491;57.750;11.970;2022-08-05T08:15:38;6.82;;;1.42;;
14799;SDS011;7491;57.750;11.970;2022-08-05T08:18:05;7.38;;;1.05;;
14799;SDS011;7491;57.750;11.970;2022-08-05T08:20:32;6.47;;;1.00;;
14799;SDS011;7491;57.750;11.970;2022-08-05T08:25:43;7.65;;;1.30;;
14799;SDS011;7491;57.750;11.970;2022-08-05T08:28:11;6.22;;;1.10;;
14799;SDS011;7491;57.750;11.970;2022-08-05T08:30:38;6.45;;;1.10;;
14799;SDS011;7491;57.750;11.970;2022-08-05T08:33:06;4.68;;;1.00;;
14799;SDS011;7491;57.750;11.970;2022-08-05T08:35:33;5.70;;;1.20;;
14799;SDS011;7491;57.750;11.970;2022-08-05T08:38:00;8.43;;;0.98;;
14799;SDS011;7491;57.750;11.970;2022-08-05T08:40:27;4.47;;;0.98;;
14799;SDS011;7491;57.750;11.970;2022-08-05T08:42:57;6.28;;;1.10;;
14799;SDS011;7491;57.750;11.970;2022-08-05T08:45:25;2.88;;;1.30;;
14799;SDS011;7491;57.750;11.970;2022-08-05T08:47:53;6.25;;;1.00;;
14799;SDS011;7491;57.750;11.970;2022-08-05T08:50:45;4.65;;;1.50;;
14799;SDS011;7491;57.750;11.970;2022-08-05T08:53:17;5.70;;;1.20;;
14799;SDS011;7491;57.750;11.970;2022-08-05T08:55:44;4.88;;;0.90;;
14799;SDS011;7491;57.750;11.970;2022-08-05T08:58:11;4.72;;;0.88;;
14799;SDS011;7491;57.750;11.970;2022-08-05T09:00:42;4.15;;;1.10;;
14799;SDS011;7491;57.750;11.970;2022-08-05T09:03:08;4.13;;;0.70;;
14799;SDS011;7491;57.750;11.970;2022-08-05T09:05:36;2.83;;;0.93;;
14799;SDS011;7491;57.750;11.970;2022-08-05T09:08:03;3.72;;;0.88;;
14799;SDS011;7491;57.750;11.970;2022-08-05T09:10:30;4.53;;;1.05;;
14799;SDS011;7491;57.750;11.970;2022-08-05T09:12:57;4.65;;;0.93;;
14799;SDS011;7491;57.750;11.970;2022-08-05T09:15:24;2.92;;;1.00;;
14799;SDS011;7491;57.750;11.970;2022-08-05T09:17:54;2.13;;;0.98;;
14799;SDS011;7491;57.750;11.970;2022-08-05T09:20:21;4.38;;;1.20;;
14799;SDS011;7491;57.750;11.970;2022-08-05T09:23:07;3.42;;;0.88;;
14799;SDS011;7491;57.750;11.970;2022-08-05T09:25:37;3.10;;;0.70;;
14799;SDS011;7491;57.750;11.970;2022-08-05T09:28:12;2.03;;;0.70;;
14799;SDS011;7491;57.750;11.970;2022-08-05T09:33:31;2.55;;;0.65;;
14799;SDS011;7491;57.750;11.970;2022-08-05T09:36:11;4.47;;;1.20;;
14799;SDS011;7491;57.750;11.970;2022-08-05T09:38:41;4.43;;;0.90;;
14799;SDS011;7491;57.750;11.970;2022-08-05T09:41:20;4.05;;;0.90;;
14799;SDS011;7491;57.750;11.970;2022-08-05T09:43:47;2.30;;;0.85;;
14799;SDS011;7491;57.750;11.970;2022-08-05T09:46:24;1.92;;;0.50;;
14799;SDS011;7491;57.750;11.970;2022-08-05T09:48:53;4.57;;;1.00;;
14799;SDS011;7491;57.750;11.970;2022-08-05T09:51:30;3.63;;;0.80;;
14799;SDS011;7491;57.750;11.970;2022-08-05T09:54:06;4.43;;;0.77;;
14799;SDS011;7491;57.750;11.970;2022-08-05T09:56:38;1.25;;;0.90;;
14799;SDS011;7491;57.750;11.970;2022-08-05T09:59:05;2.15;;;0.80;;
14799;SDS011;7491;57.750;11.970;2022-08-05T10:01:34;2.58;;;1.10;;
14799;SDS011;7491;57.750;11.970;2022-08-05T10:04:08;4.20;;;0.70;;
14799;SDS011;7491;57.750;11.970;2022-08-05T10:06:38;2.33;;;0.90;;
14799;SDS011;7491;57.750;11.970;2022-08-05T10:09:09;3.90;;;1.00;;
14799;SDS011;7491;57.750;11.970;2022-08-05T10:11:36;2.45;;;0.77;;
14799;SDS011;7491;57.750;11.970;2022-08-05T10:14:19;5.15;;;1.00;;
14799;SDS011;7491;57.750;11.970;2022-08-05T10:16:46;5.25;;;1.10;;
14799;SDS011;7491;57.750;11.970;2022-08-05T10:19:14;21.08;;;2.50;;
14799;SDS011;7491;57.750;11.970;2022-08-05T10:21:42;6.00;;;0.90;;
14799;SDS011;7491;57.750;11.970;2022-08-05T10:24:09;4.45;;;0.90;;
14799;SDS011;7491;57.750;11.970;2022-08-05T10:26:38;3.13;;;1.00;;
14799;SDS011;7491;57.750;11.970;2022-08-05T10:29:06;1.63;;;0.65;;
14799;SDS011;7491;57.750;11.970;2022-08-05T10:31:33;3.72;;;1.00;;
14799;SDS011;7491;57.750;11.970;2022-08-05T10:33:59;8.05;;;1.10;;
14799;SDS011;7491;57.750;11.970;2022-08-05T10:36:28;2.15;;;0.90;;
14799;SDS011;7491;57.750;11.970;2022-08-05T10:38:56;3.55;;;0.88;;
14799;SDS011;7491;57.750;11.970;2022-08-05T10:41:26;3.42;;;0.82;;
14799;SDS011;7491;57.750;11.970;2022-08-05T10:43:58;2.45;;;0.85;;
14799;SDS011;7491;57.750;11.970;2022-08-05T10:46:41;1.60;;;0.60;;
14799;SDS011;7491;57.750;11.970;2022-08-05T10:49:09;2.38;;;1.00;;
14799;SDS011;7491;57.750;11.970;2022-08-05T10:51:42;3.25;;;0.90;;
14799;SDS011;7491;57.750;11.970;2022-08-05T10:54:09;3.22;;;0.90;;
14799;SDS011;7491;57.750;11.970;2022-08-05T10:56:42;2.60;;;0.80;;
14799;SDS011;7491;57.750;11.970;2022-08-05T10:59:15;2.47;;;0.80;;
14799;SDS011;7491;57.750;11.970;2022-08-05T11:01:45;4.32;;;0.80;;
14799;SDS011;7491;57.750;11.970;2022-08-05T11:04:12;2.17;;;0.80;;
14799;SDS011;7491;57.750;11.970;2022-08-05T11:07:04;3.65;;;1.13;;
14799;SDS011;7491;57.750;11.970;2022-08-05T11:09:36;2.08;;;0.65;;
14799;SDS011;7491;57.750;11.970;2022-08-05T11:12:04;1.48;;;0.60;;
14799;SDS011;7491;57.750;11.970;2022-08-05T11:15:04;1.88;;;1.00;;
14799;SDS011;7491;57.750;11.970;2022-08-05T11:17:31;1.88;;;0.95;;
14799;SDS011;7491;57.750;11.970;2022-08-05T11:20:02;3.15;;;0.85;;
14799;SDS011;7491;57.750;11.970;2022-08-05T11:22:37;2.13;;;0.60;;
14799;SDS011;7491;57.750;11.970;2022-08-05T11:27:55;2.05;;;0.90;;
14799;SDS011;7491;57.750;11.970;2022-08-05T11:30:22;5.30;;;1.00;;
14799;SDS011;7491;57.750;11.970;2022-08-05T11:32:49;1.48;;;0.70;;
14799;SDS011;7491;57.750;11.970;2022-08-05T11:38:23;3.05;;;0.70;;
14799;SDS011;7491;57.750;11.970;2022-08-05T11:41:19;2.65;;;0.70;;
14799;SDS011;7491;57.750;11.970;2022-08-05T11:43:53;1.85;;;0.90;;
14799;SDS011;7491;57.750;11.970;2022-08-05T11:46:25;1.27;;;0.70;;
14799;SDS011;7491;57.750;11.970;2022-08-05T11:48:52;3.17;;;0.70;;
14799;SDS011;7491;57.750;11.970;2022-08-05T11:51:19;2.38;;;0.77;;
14799;SDS011;7491;57.750;11.970;2022-08-05T11:53:48;1.80;;;0.70;;
14799;SDS011;7491;57.750;11.970;2022-08-05T11:56:15;5.43;;;0.80;;
14799;SDS011;7491;57.750;11.970;2022-08-05T11:58:43;5.80;;;0.63;;
14799;SDS011;7491;57.750;11.970;2022-08-05T12:01:11;3.78;;;0.70;;
14799;SDS011;7491;57.750;11.970;2022-08-05T12:03:39;3.92;;;1.10;;
14799;SDS011;7491;57.750;11.970;2022-08-05T12:06:07;4.30;;;1.10;;
14799;SDS011;7491;57.750;11.970;2022-08-05T12:08:42;2.97;;;1.10;;
14799;SDS011;7491;57.750;11.970;2022-08-05T12:11:15;4.65;;;0.98;;
14799;SDS011;7491;57.750;11.970;2022-08-05T12:13:51;2.95;;;0.70;;
14799;SDS011;7491;57.750;11.970;2022-08-05T12:16:19;2.47;;;0.70;;
14799;SDS011;7491;57.750;11.970;2022-08-05T12:18:46;4.10;;;0.90;;
14799;SDS011;7491;57.750;11.970;2022-08-05T12:21:14;2.60;;;0.88;;
14799;SDS011;7491;57.750;11.970;2022-08-05T12:23:50;4.28;;;0.70;;
14799;SDS011;7491;57.750;11.970;2022-08-05T12:26:19;4.15;;;0.73;;
14799;SDS011;7491;57.750;11.970;2022-08-05T12:28:46;2.17;;;0.88;;
14799;SDS011;7491;57.750;11.970;2022-08-05T12:31:13;3.78;;;1.05;;
14799;SDS011;7491;57.750;11.970;2022-08-05T12:33:40;1.08;;;0.60;;
14799;SDS011;7491;57.750;11.970;2022-08-05T12:36:07;3.30;;;0.80;;
14799;SDS011;7491;57.750;11.970;2022-08-05T12:38:35;3.78;;;0.88;;
14799;SDS011;7491;57.750;11.970;2022-08-05T12:41:05;2.08;;;0.95;;
14799;SDS011;7491;57.750;11.970;2022-08-05T12:43:34;1.05;;;0.80;;
14799;SDS011;7491;57.750;11.970;2022-08-05T12:46:23;2.45;;;0.77;;
14799;SDS011;7491;57.750;11.970;2022-08-05T12:49:01;1.55;;;0.70;;
14799;SDS011;7491;57.750;11.970;2022-08-05T12:51:42;1.38;;;0.50;;
14799;SDS011;7491;57.750;11.970;2022-08-05T12:54:17;4.50;;;0.60;;
14799;SDS011;7491;57.750;11.970;2022-08-05T12:56:49;2.38;;;0.50;;
14799;SDS011;7491;57.750;11.970;2022-08-05T12:59:19;2.03;;;0.60;;
14799;SDS011;7491;57.750;11.970;2022-08-05T13:01:54;2.13;;;0.70;;
14799;SDS011;7491;57.750;11.970;2022-08-05T13:04:24;1.85;;;0.65;;
14799;SDS011;7491;57.750;11.970;2022-08-05T13:06:54;2.88;;;0.60;;
14799;SDS011;7491;57.750;11.970;2022-08-05T13:09:22;0.38;;;0.38;;
14799;SDS011;7491;57.750;11.970;2022-08-05T13:11:49;2.28;;;0.60;;
14799;SDS011;7491;57.750;11.970;2022-08-05T13:14:17;3.65;;;0.90;;
14799;SDS011;7491;57.750;11.970;2022-08-05T13:16:50;2.70;;;0.70;;
14799;SDS011;7491;57.750;11.970;2022-08-05T13:19:19;1.98;;;0.57;;
14799;SDS011;7491;57.750;11.970;2022-08-05T13:21:47;0.90;;;0.40;;
14799;SDS011;7491;57.750;11.970;2022-08-05T13:24:14;1.25;;;0.40;;
14799;SDS011;7491;57.750;11.970;2022-08-05T13:26:42;1.65;;;0.50;;
14799;SDS011;7491;57.750;11.970;2022-08-05T13:29:09;2.22;;;0.47;;
14799;SDS011;7491;57.750;11.970;2022-08-05T13:31:41;1.70;;;0.60;;
14799;SDS011;7491;57.750;11.970;2022-08-05T13:34:08;1.55;;;0.50;;
14799;SDS011;7491;57.750;11.970;2022-08-05T13:36:35;0.60;;;0.60;;
14799;SDS011;7491;57.750;11.970;2022-08-05T13:39:03;2.40;;;0.60;;
14799;SDS011;7491;57.750;11.970;2022-08-05T13:41:31;3.45;;;0.50;;
14799;SDS011;7491;57.750;11.970;2022-08-05T13:43:57;0.75;;;0.40;;
14799;SDS011;7491;57.750;11.970;2022-08-05T13:46:24;2.15;;;0.60;;
14799;SDS011;7491;57.750;11.970;2022-08-05T13:48:53;0.90;;;0.40;;
14799;SDS011;7491;57.750;11.970;2022-08-05T13:51:29;0.40;;;0.30;;
14799;SDS011;7491;57.750;11.970;2022-08-05T13:53:57;3.22;;;0.80;;
14799;SDS011;7491;57.750;11.970;2022-08-05T13:56:24;1.80;;;0.75;;
14799;SDS011;7491;57.750;11.970;2022-08-05T13:58:51;3.30;;;0.70;;
14799;SDS011;7491;57.750;11.970;2022-08-05T14:01:18;1.30;;;0.80;;
14799;SDS011;7491;57.750;11.970;2022-08-05T14:03:45;3.65;;;0.60;;
14799;SDS011;7491;57.750;11.970;2022-08-05T14:06:34;3.67;;;0.98;;
14799;SDS011;7491;57.750;11.970;2022-08-05T14:09:02;3.78;;;0.77;;
14799;SDS011;7491;57.750;11.970;2022-08-05T14:11:29;2.45;;;0.80;;
14799;SDS011;7491;57.750;11.970;2022-08-05T14:13:56;3.10;;;0.85;;
14799;SDS011;7491;57.750;11.970;2022-08-05T14:16:22;0.90;;;0.80;;
14799;SDS011;7491;57.750;11.970;2022-08-05T14:18:49;6.20;;;0.90;;
14799;SDS011;7491;57.750;11.970;2022-08-05T14:21:18;6.25;;;1.00;;
14799;SDS011;7491;57.750;11.970;2022-08-05T14:23:47;1.45;;;0.73;;
14799;SDS011;7491;57.750;11.970;2022-08-05T14:26:13;3.30;;;0.98;;
14799;SDS011;7491;57.750;11.970;2022-08-05T14:28:40;3.60;;;0.80;;
14799;SDS011;7491;57.750;11.970;2022-08-05T14:31:07;3.50;;;1.20;;
14799;SDS011;7491;57.750;11.970;2022-08-05T14:33:34;4.45;;;0.80;;
14799;SDS011;7491;57.750;11.970;2022-08-05T14:36:05;5.93;;;1.13;;
14799;SDS011;7491;57.750;11.970;2022-08-05T14:38:32;2.58;;;0.80;;
14799;SDS011;7491;57.750;11.970;2022-08-05T14:41:02;3.00;;;1.02;;
14799;SDS011;7491;57.750;11.970;2022-08-05T14:43:29;4.22;;;1.08;;
14799;SDS011;7491;57.750;11.970;2022-08-05T14:45:56;2.78;;;0.93;;
14799;SDS011;7491;57.750;11.970;2022-08-05T14:48:22;5.65;;;0.98;;
14799;SDS011;7491;57.750;11.970;2022-08-05T14:50:49;3.83;;;1.05;;
14799;SDS011;7491;57.750;11.970;2022-08-05T14:53:16;3.25;;;0.90;;
14799;SDS011;7491;57.750;11.970;2022-08-05T14:55:42;3.50;;;0.90;;
14799;SDS011;7491;57.750;11.970;2022-08-05T14:58:10;3.85;;;1.20;;
14799;SDS011;7491;57.750;11.970;2022-08-05T15:00:37;8.20;;;1.77;;
14799;SDS011;7491;57.750;11.970;2022-08-05T15:03:04;4.80;;;0.93;;
14799;SDS011;7491;57.750;11.970;2022-08-05T15:05:31;3.60;;;0.85;;
14799;SDS011;7491;57.750;11.970;2022-08-05T15:07:58;4.07;;;1.23;;
14799;SDS011;7491;57.750;11.970;2022-08-05T15:10:25;4.47;;;1.00;;